createdAt,value
2022-10-13T00:00:49.407Z,0.85
2022-10-13T00:03:16.840Z,0.82
2022-10-13T00:05:46.069Z,0.80
2022-10-13T00:08:14.810Z,0.82
2022-10-13T00:10:41.553Z,0.83
2022-10-13T00:13:08.911Z,0.84
2022-10-13T00:15:44.194Z,0.85
2022-10-13T00:18:11.211Z,0.84
2022-10-13T00:20:46.043Z,0.78
2022-10-13T00:23:12.944Z,0.73
2022-10-13T00:25:44.468Z,0.70
2022-10-13T00:28:11.484Z,0.68
2022-10-13T00:30:38.997Z,0.65
2022-10-13T00:33:05.815Z,0.62
2022-10-13T00:35:33.020Z,0.59
2022-10-13T00:37:59.552Z,0.56
2022-10-13T00:40:26.044Z,0.52
2022-10-13T00:42:52.593Z,0.48
2022-10-13T00:45:29.170Z,0.46
2022-10-13T00:47:58.898Z,0.44
2022-10-13T00:50:32.805Z,0.43
2022-10-13T00:53:01.585Z,0.42
2022-10-13T00:55:31.823Z,0.40
2022-10-13T00:58:04.931Z,0.40
2022-10-13T01:00:34.707Z,0.40
2022-10-13T01:03:03.102Z,0.40
2022-10-13T01:05:30.889Z,0.40
2022-10-13T01:07:58.110Z,0.38
2022-10-13T01:10:49.954Z,0.34
2022-10-13T01:13:28.168Z,0.25
2022-10-13T01:16:15.394Z,0.21
2022-10-13T01:19:09.482Z,0.22
2022-10-13T01:21:44.871Z,0.24
2022-10-13T01:24:20.795Z,0.20
2022-10-13T01:27:08.942Z,0.18
2022-10-13T01:30:02.720Z,0.19
2022-10-13T01:32:41.441Z,0.21
2022-10-13T01:35:32.454Z,0.21
2022-10-13T01:38:09.240Z,0.19
2022-10-13T01:40:44.753Z,0.16
2022-10-13T01:43:28.722Z,0.12
2022-10-13T01:46:20.364Z,0.12
2022-10-13T01:48:46.834Z,0.13
2022-10-13T01:51:18.166Z,0.11
2022-10-13T01:53:46.977Z,0.09
2022-10-13T01:56:13.996Z,0.06
2022-10-13T01:58:40.942Z,0.02
2022-10-13T02:01:15.217Z,-0.02
2022-10-13T02:03:47.738Z,-0.04
2022-10-13T02:06:24.767Z,-0.09
2022-10-13T02:08:57.908Z,-0.14
2022-10-13T02:11:25.306Z,-0.17
2022-10-13T02:14:07.516Z,-0.19
2022-10-13T02:16:38.372Z,-0.23
2022-10-13T02:19:06.604Z,-0.23
2022-10-13T02:21:33.960Z,-0.20
2022-10-13T02:24:00.763Z,-0.19
2022-10-13T02:26:27.566Z,-0.19
2022-10-13T02:28:54.092Z,-0.20
2022-10-13T02:31:20.569Z,-0.21
2022-10-13T02:33:47.068Z,-0.22
2022-10-13T02:36:13.509Z,-0.24
2022-10-13T02:38:40.015Z,-0.26
2022-10-13T02:41:06.651Z,-0.28
2022-10-13T02:43:33.540Z,-0.29
2022-10-13T02:46:00.025Z,-0.31
2022-10-13T02:48:26.520Z,-0.33
2022-10-13T02:50:53.119Z,-0.33
2022-10-13T02:53:19.591Z,-0.35
2022-10-13T02:55:46.138Z,-0.38
2022-10-13T02:58:12.784Z,-0.39
2022-10-13T03:00:39.305Z,-0.41
2022-10-13T03:03:06.782Z,-0.43
2022-10-13T03:05:33.529Z,-0.45
2022-10-13T03:07:59.992Z,-0.43
2022-10-13T03:10:26.506Z,-0.38
2022-10-13T03:12:55.014Z,-0.35
2022-10-13T03:15:21.499Z,-0.34
2022-10-13T03:17:48.478Z,-0.32
2022-10-13T03:20:15.330Z,-0.33
2022-10-13T03:22:44.859Z,-0.33
2022-10-13T03:25:14.032Z,-0.34
2022-10-13T03:27:40.574Z,-0.36
2022-10-13T03:30:07.930Z,-0.36
2022-10-13T03:32:34.363Z,-0.36
2022-10-13T03:35:00.906Z,-0.34
2022-10-13T03:37:29.989Z,-0.31
2022-10-13T03:39:56.649Z,-0.28
2022-10-13T03:42:23.516Z,-0.27
2022-10-13T03:44:55.245Z,-0.27
2022-10-13T03:47:23.127Z,-0.23
2022-10-13T03:49:49.668Z,-0.19
2022-10-13T03:52:16.126Z,-0.12
2022-10-13T03:54:42.732Z,-0.06
2022-10-13T03:57:09.296Z,0.01
2022-10-13T03:59:36.953Z,0.06
2022-10-13T04:02:04.132Z,0.10
2022-10-13T04:04:30.767Z,0.14
2022-10-13T04:06:57.314Z,0.17
2022-10-13T04:09:23.850Z,0.19
2022-10-13T04:11:51.621Z,0.20
2022-10-13T04:14:19.181Z,0.23
2022-10-13T04:16:46.954Z,0.26
2022-10-13T04:19:15.081Z,0.27
2022-10-13T04:21:42.811Z,0.29
2022-10-13T04:24:13.300Z,0.32
2022-10-13T04:26:40.494Z,0.39
2022-10-13T04:29:09.418Z,0.45
2022-10-13T04:31:37.173Z,0.50
2022-10-13T04:34:04.312Z,0.54
2022-10-13T04:36:30.742Z,0.58
2022-10-13T04:38:57.500Z,0.62
2022-10-13T04:41:24.100Z,0.67
2022-10-13T04:43:51.729Z,0.73
2022-10-13T04:46:21.644Z,0.81
2022-10-13T04:48:48.891Z,0.87
2022-10-13T04:51:18.426Z,0.92
2022-10-13T04:53:45.245Z,0.93
2022-10-13T04:56:14.175Z,0.96
2022-10-13T04:58:45.929Z,1.00
2022-10-13T05:01:21.194Z,1.02
2022-10-13T05:04:01.674Z,1.04
2022-10-13T05:06:34.175Z,1.02
2022-10-13T05:09:01.193Z,1.01
2022-10-13T05:11:29.053Z,1.01
2022-10-13T05:13:56.749Z,1.02
2022-10-13T05:16:24.056Z,1.05
2022-10-13T05:18:54.695Z,1.09
2022-10-13T05:21:24.368Z,1.14
2022-10-13T05:23:51.769Z,1.20
2022-10-13T05:26:18.622Z,1.29
2022-10-13T05:28:45.315Z,1.36
2022-10-13T05:31:17.871Z,1.40
2022-10-13T05:33:45.162Z,1.44
2022-10-13T05:36:18.226Z,1.48
2022-10-13T05:38:45.247Z,1.50
2022-10-13T05:41:14.346Z,1.43
2022-10-13T05:43:42.449Z,1.39
2022-10-13T05:46:09.173Z,1.38
2022-10-13T05:48:36.674Z,1.41
2022-10-13T05:51:25.841Z,1.43
2022-10-13T05:54:04.526Z,1.47
2022-10-13T05:56:36.109Z,1.54
2022-10-13T05:59:05.820Z,1.52
2022-10-13T06:01:36.733Z,1.51
2022-10-13T06:04:08.508Z,1.57
2022-10-13T06:06:35.672Z,1.68
2022-10-13T06:09:02.346Z,1.76
2022-10-13T06:11:28.942Z,1.76
2022-10-13T06:13:55.379Z,1.76
2022-10-13T06:16:21.972Z,1.81
2022-10-13T06:18:48.769Z,1.84
2022-10-13T06:21:15.226Z,1.91
2022-10-13T06:23:41.818Z,2.00
2022-10-13T06:26:08.597Z,2.08
2022-10-13T06:28:35.478Z,2.17
2022-10-13T06:31:05.462Z,2.30
2022-10-13T06:33:32.755Z,2.44
2022-10-13T06:36:06.989Z,2.58
2022-10-13T06:38:34.003Z,2.64
2022-10-13T06:41:04.647Z,2.67
2022-10-13T06:43:39.727Z,2.71
2022-10-13T06:46:07.657Z,2.78
2022-10-13T06:48:34.506Z,2.82
2022-10-13T06:51:10.685Z,2.87
2022-10-13T06:53:37.932Z,2.97
2022-10-13T06:56:06.840Z,3.01
2022-10-13T06:58:35.231Z,3.04
2022-10-13T07:01:02.320Z,3.05
2022-10-13T07:03:28.938Z,3.06
2022-10-13T07:06:00.671Z,3.12
2022-10-13T07:08:27.212Z,3.28
2022-10-13T07:10:53.637Z,3.41
2022-10-13T07:15:51.463Z,3.70
2022-10-13T07:18:17.978Z,3.77
2022-10-13T07:20:44.415Z,3.94
2022-10-13T07:23:10.958Z,4.15
2022-10-13T07:25:37.833Z,4.34
2022-10-13T07:28:04.341Z,4.52
2022-10-13T07:30:31.047Z,4.74
2022-10-13T07:32:57.601Z,4.96
2022-10-13T07:35:28.236Z,5.09
2022-10-13T07:37:57.167Z,5.16
2022-10-13T07:40:23.934Z,5.24
2022-10-13T07:42:51.058Z,5.32
2022-10-13T07:45:17.603Z,5.36
2022-10-13T07:47:44.142Z,5.44
2022-10-13T07:50:10.580Z,5.49
2022-10-13T07:52:37.252Z,5.77
2022-10-13T07:55:04.537Z,6.05
2022-10-13T07:57:31.226Z,6.14
2022-10-13T07:59:57.764Z,6.26
2022-10-13T08:02:24.304Z,6.50
2022-10-13T08:04:50.847Z,6.62
2022-10-13T08:07:17.806Z,6.62
2022-10-13T08:09:45.863Z,6.68
2022-10-13T08:12:12.330Z,6.64
2022-10-13T08:14:38.972Z,6.66
2022-10-13T08:17:05.606Z,6.69
2022-10-13T08:19:32.150Z,6.83
2022-10-13T08:21:59.961Z,7.15
2022-10-13T08:24:27.389Z,7.52
2022-10-13T08:26:54.023Z,7.96
2022-10-13T08:29:22.423Z,8.48
2022-10-13T08:31:52.609Z,8.95
2022-10-13T08:34:19.952Z,9.54
2022-10-13T08:36:46.435Z,9.94
2022-10-13T08:39:13.281Z,10.15
2022-10-13T08:41:42.899Z,10.59
2022-10-13T08:45:06.293Z,10.92
2022-10-13T08:47:36.042Z,11.10
2022-10-13T08:50:10.645Z,11.31
2022-10-13T08:52:55.108Z,11.60
2022-10-13T08:55:28.277Z,12.04
2022-10-13T08:57:54.818Z,12.37
2022-10-13T09:00:21.364Z,12.52
2022-10-13T09:02:49.179Z,12.71
2022-10-13T09:05:47.007Z,13.08
2022-10-13T09:08:19.623Z,13.45
2022-10-13T09:10:52.360Z,13.62
2022-10-13T09:13:19.884Z,13.79
2022-10-13T09:15:49.161Z,13.57
2022-10-13T09:18:15.979Z,13.33
2022-10-13T09:20:42.824Z,13.28
2022-10-13T09:23:23.019Z,13.48
2022-10-13T09:25:51.784Z,13.51
2022-10-13T09:28:28.519Z,13.72
2022-10-13T09:31:26.330Z,13.74
2022-10-13T09:34:20.713Z,13.60
2022-10-13T09:37:05.704Z,13.78
2022-10-13T09:39:33.883Z,14.03
2022-10-13T09:42:20.911Z,14.32
2022-10-13T09:44:56.755Z,14.87
2022-10-13T09:47:23.444Z,15.21
2022-10-13T09:50:15.361Z,15.08
2022-10-13T09:52:42.959Z,14.92
2022-10-13T09:55:32.671Z,14.80
2022-10-13T09:58:24.106Z,14.77
2022-10-13T10:00:52.494Z,14.79
2022-10-13T10:03:27.675Z,14.76
2022-10-13T10:05:56.986Z,14.96
2022-10-13T10:09:02.124Z,15.14
2022-10-13T10:11:35.119Z,15.04
2022-10-13T10:14:27.944Z,15.01
2022-10-13T10:17:17.047Z,15.01
2022-10-13T10:19:58.627Z,14.93
2022-10-13T10:22:30.919Z,14.90
2022-10-13T10:25:33.956Z,15.04
2022-10-13T10:28:34.328Z,15.31
2022-10-13T10:31:25.701Z,15.17
2022-10-13T10:34:20.033Z,15.19
2022-10-13T10:36:57.397Z,15.32
2022-10-13T10:39:32.116Z,15.41
2022-10-13T10:42:20.065Z,15.60
2022-10-13T10:44:50.628Z,15.65
2022-10-13T10:47:27.044Z,15.64
2022-10-13T10:50:00.149Z,15.72
2022-10-13T10:52:42.592Z,15.84
2022-10-13T10:55:23.066Z,16.03
2022-10-13T10:58:10.821Z,16.22
2022-10-13T11:00:45.608Z,16.27
2022-10-13T11:03:33.680Z,16.42
2022-10-13T11:06:02.987Z,16.42
2022-10-13T11:08:45.190Z,16.52
2022-10-13T11:11:24.870Z,16.75
2022-10-13T11:14:05.796Z,17.02
2022-10-13T11:16:35.044Z,17.22
2022-10-13T11:19:26.062Z,17.33
2022-10-13T11:21:52.493Z,17.37
2022-10-13T11:24:34.202Z,17.30
2022-10-13T11:27:16.092Z,17.33
2022-10-13T11:29:45.598Z,17.22
2022-10-13T11:32:27.424Z,17.21
2022-10-13T11:35:00.589Z,17.24
2022-10-13T11:38:06.891Z,17.35
2022-10-13T11:41:11.801Z,17.33
2022-10-13T11:44:00.361Z,17.40
2022-10-13T11:46:38.365Z,17.43
2022-10-13T11:49:37.883Z,17.60
2022-10-13T11:52:56.462Z,17.70
2022-10-13T11:55:38.984Z,17.78
2022-10-13T11:58:14.348Z,17.84
2022-10-13T12:00:54.592Z,17.71
2022-10-13T12:03:27.063Z,17.62
2022-10-13T12:05:56.578Z,17.51
2022-10-13T12:08:24.141Z,17.52
2022-10-13T12:10:54.864Z,17.55
2022-10-13T12:13:28.529Z,17.48
2022-10-13T12:16:03.660Z,17.51
2022-10-13T12:18:35.997Z,17.47
2022-10-13T12:21:11.533Z,17.49
2022-10-13T12:23:38.394Z,17.60
2022-10-13T12:26:05.654Z,17.72
2022-10-13T12:29:00.957Z,17.84
2022-10-13T12:31:40.846Z,17.75
2022-10-13T12:34:25.310Z,17.88
2022-10-13T12:37:00.592Z,18.04
2022-10-13T12:39:29.325Z,18.11
2022-10-13T12:41:57.377Z,18.07
2022-10-13T12:44:27.112Z,17.92
2022-10-13T12:46:56.420Z,17.82
2022-10-13T12:49:25.967Z,17.72
2022-10-13T12:51:58.112Z,17.66
2022-10-13T12:54:29.156Z,17.66
2022-10-13T12:56:59.188Z,17.70
2022-10-13T12:59:28.073Z,17.73
2022-10-13T13:01:58.349Z,17.78
2022-10-13T13:04:39.788Z,17.74
2022-10-13T13:07:22.591Z,17.71
2022-10-13T13:10:07.439Z,17.70
2022-10-13T13:12:36.078Z,17.66
2022-10-13T13:15:32.090Z,17.56
2022-10-13T13:18:29.458Z,17.49
2022-10-13T13:20:56.730Z,17.49
2022-10-13T13:23:23.784Z,17.52
2022-10-13T13:26:01.124Z,17.53
2022-10-13T13:28:32.494Z,17.46
2022-10-13T13:31:00.219Z,17.40
2022-10-13T13:33:26.744Z,17.42
2022-10-13T13:35:54.106Z,17.49
2022-10-13T13:38:20.646Z,17.54
2022-10-13T13:40:47.294Z,17.50
2022-10-13T13:43:13.766Z,17.47
2022-10-13T13:45:40.476Z,17.39
2022-10-13T13:48:07.215Z,17.33
2022-10-13T13:50:36.223Z,17.28
2022-10-13T13:53:03.365Z,17.24
2022-10-13T13:55:30.192Z,17.20
2022-10-13T13:57:57.211Z,17.13
2022-10-13T14:00:23.805Z,17.09
2022-10-13T14:02:50.553Z,17.07
2022-10-13T14:05:17.191Z,17.06
2022-10-13T14:07:44.245Z,17.01
2022-10-13T14:10:11.295Z,17.07
2022-10-13T14:12:38.347Z,17.36
2022-10-13T14:15:05.499Z,17.70
2022-10-13T14:17:31.974Z,18.07
2022-10-13T14:19:58.485Z,18.15
2022-10-13T14:22:25.323Z,18.30
2022-10-13T14:24:52.108Z,18.60
2022-10-13T14:27:18.628Z,18.82
2022-10-13T14:29:45.158Z,19.08
2022-10-13T14:32:12.016Z,19.09
2022-10-13T14:34:38.429Z,19.00
2022-10-13T14:37:05.130Z,18.95
2022-10-13T14:39:31.623Z,18.41
2022-10-13T14:41:58.078Z,17.86
2022-10-13T14:44:25.390Z,17.45
2022-10-13T14:46:51.831Z,17.14
2022-10-13T14:49:18.267Z,17.16
2022-10-13T14:51:44.733Z,17.55
2022-10-13T14:54:11.273Z,17.85
2022-10-13T14:56:37.925Z,18.01
2022-10-13T14:59:06.812Z,17.99
2022-10-13T15:01:34.279Z,17.73
2022-10-13T15:04:01.718Z,17.66
2022-10-13T15:06:28.674Z,17.80
2022-10-13T15:08:55.793Z,17.56
2022-10-13T15:11:22.795Z,16.97
2022-10-13T15:13:49.313Z,16.47
2022-10-13T15:16:21.595Z,16.08
2022-10-13T15:18:48.315Z,15.69
2022-10-13T15:21:15.954Z,15.34
2022-10-13T15:23:43.374Z,15.06
2022-10-13T15:26:11.950Z,14.82
2022-10-13T15:28:42.068Z,14.59
2022-10-13T15:31:08.739Z,14.39
2022-10-13T15:33:35.172Z,14.21
2022-10-13T15:36:01.906Z,14.06
2022-10-13T15:38:28.547Z,13.91
2022-10-13T15:41:02.858Z,13.78
2022-10-13T15:43:29.693Z,13.64
2022-10-13T15:46:00.664Z,13.51
2022-10-13T15:48:27.344Z,13.37
2022-10-13T15:50:53.853Z,13.22
2022-10-13T15:53:20.498Z,13.10
2022-10-13T15:55:47.747Z,12.97
2022-10-13T15:58:14.382Z,12.83
2022-10-13T16:00:41.562Z,12.69
2022-10-13T16:03:13.814Z,12.56
2022-10-13T16:05:42.440Z,12.42
2022-10-13T16:08:09.166Z,12.30
2022-10-13T16:10:39.000Z,12.18
2022-10-13T16:13:05.604Z,12.05
2022-10-13T16:15:32.141Z,11.94
2022-10-13T16:17:58.597Z,11.85
2022-10-13T16:20:25.168Z,11.74
2022-10-13T16:22:53.804Z,11.61
2022-10-13T16:25:20.348Z,11.52
2022-10-13T16:27:46.859Z,11.40
2022-10-13T16:30:13.312Z,11.28
2022-10-13T16:32:40.270Z,11.17
2022-10-13T16:35:07.728Z,11.07
2022-10-13T16:37:34.477Z,10.92
2022-10-13T16:40:00.988Z,10.75
2022-10-13T16:42:27.549Z,10.60
2022-10-13T16:44:54.091Z,10.46
2022-10-13T16:47:20.769Z,10.32
2022-10-13T16:49:47.581Z,10.16
2022-10-13T16:52:14.084Z,10.03
2022-10-13T16:54:40.555Z,9.90
2022-10-13T16:57:07.195Z,9.79
2022-10-13T16:59:33.734Z,9.67
2022-10-13T17:02:00.127Z,9.57
2022-10-13T17:04:27.023Z,9.45
2022-10-13T17:06:53.557Z,9.36
2022-10-13T17:09:19.965Z,9.28
2022-10-13T17:11:46.642Z,9.21
2022-10-13T17:14:13.275Z,9.14
2022-10-13T17:16:39.815Z,9.05
2022-10-13T17:19:06.865Z,8.94
2022-10-13T17:21:34.026Z,8.86
2022-10-13T17:24:00.763Z,8.81
2022-10-13T17:26:27.306Z,8.77
2022-10-13T17:28:54.055Z,8.71
2022-10-13T17:31:23.067Z,8.62
2022-10-13T17:33:50.244Z,8.55
2022-10-13T17:36:22.964Z,8.50
2022-10-13T17:38:50.704Z,8.45
2022-10-13T17:41:18.358Z,8.39
2022-10-13T17:43:45.370Z,8.32
2022-10-13T17:49:01.488Z,8.23
2022-10-13T17:51:28.130Z,8.19
2022-10-13T17:53:54.976Z,8.14
2022-10-13T17:56:23.821Z,8.09
2022-10-13T17:58:51.537Z,8.04
2022-10-13T18:01:20.958Z,7.98
2022-10-13T18:03:50.328Z,7.91
2022-10-13T18:06:17.453Z,7.83
2022-10-13T18:08:44.276Z,7.78
2022-10-13T18:11:13.552Z,7.72
2022-10-13T18:13:40.705Z,7.64
2022-10-13T18:16:11.489Z,7.58
2022-10-13T18:18:38.410Z,7.52
2022-10-13T18:21:07.335Z,7.45
2022-10-13T18:23:35.872Z,7.37
2022-10-13T18:26:11.778Z,7.29
2022-10-13T18:28:39.858Z,7.20
2022-10-13T18:31:11.607Z,7.12
2022-10-13T18:33:38.926Z,7.07
2022-10-13T18:36:24.115Z,7.02
2022-10-13T18:38:56.604Z,6.97
2022-10-13T18:41:24.457Z,6.93
2022-10-13T18:43:51.353Z,6.86
2022-10-13T18:46:18.456Z,6.78
2022-10-13T18:48:45.108Z,6.71
2022-10-13T18:51:14.219Z,6.66
2022-10-13T18:53:42.786Z,6.62
2022-10-13T18:56:12.980Z,6.58
2022-10-13T18:58:39.472Z,6.55
2022-10-13T19:01:09.483Z,6.52
2022-10-13T19:03:37.853Z,6.47
2022-10-13T19:06:06.945Z,6.46
2022-10-13T19:08:34.205Z,6.45
2022-10-13T19:11:01.052Z,6.44
2022-10-13T19:13:27.851Z,6.41
2022-10-13T19:16:01.527Z,6.36
2022-10-13T19:18:28.761Z,6.31
2022-10-13T19:20:55.717Z,6.27
2022-10-13T19:23:22.263Z,6.22
2022-10-13T19:25:49.221Z,6.20
2022-10-13T19:28:16.707Z,6.16
2022-10-13T19:30:43.653Z,6.10
2022-10-13T19:33:12.116Z,6.05
2022-10-13T19:35:40.592Z,5.99
2022-10-13T19:38:07.235Z,5.95
2022-10-13T19:40:33.880Z,5.94
2022-10-13T19:43:00.323Z,5.92
2022-10-13T19:45:26.876Z,5.91
2022-10-13T19:47:53.307Z,5.88
2022-10-13T19:50:19.833Z,5.86
2022-10-13T19:52:46.382Z,5.82
2022-10-13T19:55:12.784Z,5.80
2022-10-13T19:57:39.255Z,5.79
2022-10-13T20:00:06.613Z,5.78
2022-10-13T20:02:33.155Z,5.80
2022-10-13T20:04:59.695Z,5.79
2022-10-13T20:07:26.440Z,5.75
2022-10-13T20:09:52.879Z,5.71
2022-10-13T20:12:19.297Z,5.67
2022-10-13T20:14:45.960Z,5.63
2022-10-13T20:17:12.479Z,5.57
2022-10-13T20:19:38.948Z,5.51
2022-10-13T20:22:05.480Z,5.46
2022-10-13T20:24:31.922Z,5.41
2022-10-13T20:26:58.349Z,5.37
2022-10-13T20:29:25.103Z,5.34
2022-10-13T20:31:51.519Z,5.33
2022-10-13T20:34:18.080Z,5.32
2022-10-13T20:36:44.513Z,5.30
2022-10-13T20:39:10.954Z,5.28
2022-10-13T20:41:37.386Z,5.25
2022-10-13T20:44:04.133Z,5.21
2022-10-13T20:46:30.775Z,5.17
2022-10-13T20:49:10.539Z,5.13
2022-10-13T20:51:39.528Z,5.07
2022-10-13T20:54:06.068Z,5.03
2022-10-13T20:56:33.494Z,4.99
2022-10-13T20:59:04.805Z,4.95
2022-10-13T21:01:31.833Z,4.90
2022-10-13T21:03:58.539Z,4.87
2022-10-13T21:06:25.714Z,4.83
2022-10-13T21:08:53.100Z,4.80
2022-10-13T21:11:21.274Z,4.77
2022-10-13T21:13:49.209Z,4.75
2022-10-13T21:16:18.131Z,4.72
2022-10-13T21:18:46.535Z,4.70
2022-10-13T21:21:13.013Z,4.70
2022-10-13T21:23:39.512Z,4.68
2022-10-13T21:26:08.358Z,4.66
2022-10-13T21:28:37.382Z,4.62
2022-10-13T21:31:06.526Z,4.58
2022-10-13T21:33:35.737Z,4.53
2022-10-13T21:36:09.438Z,4.49
2022-10-13T21:38:36.570Z,4.44
2022-10-13T21:41:07.833Z,4.41
2022-10-13T21:43:34.581Z,4.37
2022-10-13T21:46:21.912Z,4.34
2022-10-13T21:49:06.327Z,4.33
2022-10-13T21:51:35.570Z,4.28
2022-10-13T21:54:05.188Z,4.25
2022-10-13T21:56:33.147Z,4.22
2022-10-13T21:58:59.632Z,4.19
2022-10-13T22:01:26.656Z,4.16
2022-10-13T22:03:56.004Z,4.15
2022-10-13T22:06:23.233Z,4.14
2022-10-13T22:08:51.399Z,4.11
2022-10-13T22:11:18.669Z,4.08
2022-10-13T22:13:45.812Z,4.04
2022-10-13T22:16:16.148Z,3.95
2022-10-13T22:18:43.372Z,3.89
2022-10-13T22:21:13.744Z,3.88
2022-10-13T22:23:40.783Z,3.89
2022-10-13T22:26:08.243Z,3.90
2022-10-13T22:28:37.460Z,3.89
2022-10-13T22:31:11.821Z,3.88
2022-10-13T22:33:40.389Z,3.88
2022-10-13T22:36:16.803Z,3.87
2022-10-13T22:38:45.234Z,3.86
2022-10-13T22:41:12.062Z,3.83
2022-10-13T22:43:38.569Z,3.80
2022-10-13T22:46:05.346Z,3.73
2022-10-13T22:48:35.831Z,3.69
2022-10-13T22:51:05.905Z,3.66
2022-10-13T22:53:33.674Z,3.66
2022-10-13T22:56:00.908Z,3.66
2022-10-13T22:58:27.378Z,3.65
2022-10-13T23:00:53.822Z,3.64
2022-10-13T23:03:20.588Z,3.62
2022-10-13T23:05:48.526Z,3.59
2022-10-13T23:08:15.090Z,3.56
2022-10-13T23:10:41.681Z,3.54
2022-10-13T23:13:08.290Z,3.52
2022-10-13T23:15:37.972Z,3.53
2022-10-13T23:18:04.580Z,3.52
2022-10-13T23:20:31.015Z,3.52
2022-10-13T23:22:57.494Z,3.51
2022-10-13T23:25:23.930Z,3.49
2022-10-13T23:27:50.401Z,3.49
2022-10-13T23:30:17.012Z,3.48
2022-10-13T23:32:43.552Z,3.47
2022-10-13T23:35:10.204Z,3.46
2022-10-13T23:37:36.676Z,3.47
2022-10-13T23:40:03.387Z,3.47
2022-10-13T23:42:29.863Z,3.48
2022-10-13T23:44:56.356Z,3.47
2022-10-13T23:47:23.261Z,3.47
2022-10-13T23:49:50.122Z,3.46
2022-10-13T23:52:18.886Z,3.48
2022-10-13T23:54:45.365Z,3.50
2022-10-13T23:57:11.842Z,3.54
2022-10-13T23:59:38.359Z,3.59
